sensor_id;sensor_type;location;lat;lon;timestamp;pressure;altitude;pressure_sealevel;temperature;humidity
64189;BME280;50493;50.970;10.082;2023-09-30T00:00:35;99991.50;;;17.97;56.65
64189;BME280;50493;50.970;10.082;2023-09-30T00:03:02;99988.19;;;17.92;57.09
64189;BME280;50493;50.970;10.082;2023-09-30T00:05:27;99993.47;;;17.92;57.24
64189;BME280;50493;50.970;10.082;2023-09-30T00:07:54;100003.59;;;17.82;57.28
64189;BME280;50493;50.970;10.082;2023-09-30T00:10:19;100011.44;;;17.83;56.84
64189;BME280;50493;50.970;10.082;2023-09-30T00:12:45;100008.56;;;17.90;56.77
64189;BME280;50493;50.970;10.082;2023-09-30T00:15:11;100013.19;;;17.84;56.70
64189;BME280;50493;50.970;10.082;2023-09-30T00:17:36;100011.59;;;17.80;56.71
64189;BME280;50493;50.970;10.082;2023-09-30T00:20:02;100011.84;;;17.74;57.09
64189;BME280;50493;50.970;10.082;2023-09-30T00:22:29;100010.13;;;17.73;56.65
64189;BME280;50493;50.970;10.082;2023-09-30T00:24:56;100010.72;;;17.58;57.44
64189;BME280;50493;50.970;10.082;2023-09-30T00:27:21;100009.06;;;17.55;57.06
64189;BME280;50493;50.970;10.082;2023-09-30T00:29:47;100012.31;;;17.62;56.73
64189;BME280;50493;50.970;10.082;2023-09-30T00:32:12;100017.00;;;17.77;56.03
64189;BME280;50493;50.970;10.082;2023-09-30T00:34:38;100014.19;;;17.60;56.96
64189;BME280;50493;50.970;10.082;2023-09-30T00:37:03;100016.38;;;17.48;56.92
64189;BME280;50493;50.970;10.082;2023-09-30T00:39:28;100015.97;;;17.37;57.60
64189;BME280;50493;50.970;10.082;2023-09-30T00:41:58;100019.09;;;17.25;57.64
64189;BME280;50493;50.970;10.082;2023-09-30T00:44:24;100025.63;;;17.14;58.04
64189;BME280;50493;50.970;10.082;2023-09-30T00:46:50;100031.06;;;17.11;57.75
64189;BME280;50493;50.970;10.082;2023-09-30T00:49:15;100040.44;;;17.18;57.47
64189;BME280;50493;50.970;10.082;2023-09-30T00:51:43;100037.75;;;17.20;57.35
64189;BME280;50493;50.970;10.082;2023-09-30T00:54:09;100046.69;;;17.17;57.30
64189;BME280;50493;50.970;10.082;2023-09-30T00:56:39;100053.38;;;17.26;56.74
64189;BME280;50493;50.970;10.082;2023-09-30T00:59:09;100056.63;;;17.33;56.28
64189;BME280;50493;50.970;10.082;2023-09-30T01:01:35;100061.84;;;17.12;57.33
64189;BME280;50493;50.970;10.082;2023-09-30T01:04:02;100056.84;;;17.27;56.33
64189;BME280;50493;50.970;10.082;2023-09-30T01:06:27;100056.56;;;17.12;56.86
64189;BME280;50493;50.970;10.082;2023-09-30T01:08:53;100059.41;;;17.06;57.07
64189;BME280;50493;50.970;10.082;2023-09-30T01:11:18;100063.03;;;17.03;56.81
64189;BME280;50493;50.970;10.082;2023-09-30T01:13:44;100061.16;;;17.07;56.73
64189;BME280;50493;50.970;10.082;2023-09-30T01:16:11;100062.31;;;17.00;56.58
64189;BME280;50493;50.970;10.082;2023-09-30T01:18:37;100067.94;;;16.91;56.83
64189;BME280;50493;50.970;10.082;2023-09-30T01:21:04;100072.44;;;16.87;56.98
64189;BME280;50493;50.970;10.082;2023-09-30T01:23:32;100070.16;;;16.76;57.29
64189;BME280;50493;50.970;10.082;2023-09-30T01:26:01;100067.91;;;16.65;57.49
64189;BME280;50493;50.970;10.082;2023-09-30T01:28:28;100070.94;;;16.55;57.90
64189;BME280;50493;50.970;10.082;2023-09-30T01:30:53;100077.13;;;16.53;57.83
64189;BME280;50493;50.970;10.082;2023-09-30T01:33:19;100077.38;;;16.47;57.64
64189;BME280;50493;50.970;10.082;2023-09-30T01:35:44;100082.59;;;16.49;57.54
64189;BME280;50493;50.970;10.082;2023-09-30T01:38:10;100083.19;;;16.57;57.20
64189;BME280;50493;50.970;10.082;2023-09-30T01:40:37;100083.28;;;16.54;57.10
64189;BME280;50493;50.970;10.082;2023-09-30T01:43:05;100091.94;;;16.58;56.83
64189;BME280;50493;50.970;10.082;2023-09-30T01:45:30;100095.13;;;16.67;56.46
64189;BME280;50493;50.970;10.082;2023-09-30T01:47:56;100098.22;;;16.80;56.19
64189;BME280;50493;50.970;10.082;2023-09-30T01:50:21;100106.06;;;16.82;56.06
64189;BME280;50493;50.970;10.082;2023-09-30T01:52:47;100103.78;;;16.71;56.11
64189;BME280;50493;50.970;10.082;2023-09-30T01:55:12;100103.69;;;16.74;55.86
64189;BME280;50493;50.970;10.082;2023-09-30T01:57:39;100097.56;;;16.99;55.03
64189;BME280;50493;50.970;10.082;2023-09-30T02:00:06;100108.88;;;16.77;55.83
64189;BME280;50493;50.970;10.082;2023-09-30T02:02:34;100105.53;;;16.72;55.79
64189;BME280;50493;50.970;10.082;2023-09-30T02:05:00;100104.84;;;16.40;56.53
64189;BME280;50493;50.970;10.082;2023-09-30T02:07:26;100101.69;;;16.30;57.07
64189;BME280;50493;50.970;10.082;2023-09-30T02:09:51;100099.09;;;16.29;56.74
64189;BME280;50493;50.970;10.082;2023-09-30T02:12:16;100096.91;;;16.42;56.30
64189;BME280;50493;50.970;10.082;2023-09-30T02:14:43;100099.28;;;16.49;55.84
64189;BME280;50493;50.970;10.082;2023-09-30T02:17:09;100103.91;;;16.68;49.66
64189;BME280;50493;50.970;10.082;2023-09-30T02:19:34;100111.72;;;16.71;54.98
64189;BME280;50493;50.970;10.082;2023-09-30T02:22:00;100116.38;;;16.90;53.65
64189;BME280;50493;50.970;10.082;2023-09-30T02:24:25;100129.38;;;16.96;53.80
64189;BME280;50493;50.970;10.082;2023-09-30T02:26:51;100132.00;;;16.96;54.32
64189;BME280;50493;50.970;10.082;2023-09-30T02:29:16;100117.13;;;16.93;54.20
64189;BME280;50493;50.970;10.082;2023-09-30T02:31:43;100128.72;;;17.13;53.28
64189;BME280;50493;50.970;10.082;2023-09-30T02:34:08;100134.09;;;16.86;54.11
64189;BME280;50493;50.970;10.082;2023-09-30T02:36:33;100125.78;;;16.97;53.67
64189;BME280;50493;50.970;10.082;2023-09-30T02:39:04;100136.66;;;16.88;54.21
64189;BME280;50493;50.970;10.082;2023-09-30T02:41:30;100138.69;;;16.79;54.09
64189;BME280;50493;50.970;10.082;2023-09-30T02:43:55;100136.06;;;16.81;54.18
64189;BME280;50493;50.970;10.082;2023-09-30T02:46:20;100144.41;;;16.67;54.38
64189;BME280;50493;50.970;10.082;2023-09-30T02:48:47;100150.56;;;16.67;54.38
64189;BME280;50493;50.970;10.082;2023-09-30T02:51:13;100156.19;;;16.83;53.71
64189;BME280;50493;50.970;10.082;2023-09-30T02:53:38;100151.09;;;16.77;54.07
64189;BME280;50493;50.970;10.082;2023-09-30T02:56:04;100142.28;;;16.78;54.01
64189;BME280;50493;50.970;10.082;2023-09-30T02:58:29;100141.06;;;16.62;54.21
64189;BME280;50493;50.970;10.082;2023-09-30T03:00:55;100150.13;;;16.55;54.48
64189;BME280;50493;50.970;10.082;2023-09-30T03:03:21;100155.03;;;16.65;54.24
64189;BME280;50493;50.970;10.082;2023-09-30T03:05:48;100148.19;;;16.60;54.22
64189;BME280;50493;50.970;10.082;2023-09-30T03:08:15;100151.84;;;16.56;54.26
64189;BME280;50493;50.970;10.082;2023-09-30T03:10:40;100154.19;;;16.38;54.61
64189;BME280;50493;50.970;10.082;2023-09-30T03:13:06;100146.47;;;16.32;54.70
64189;BME280;50493;50.970;10.082;2023-09-30T03:15:32;100152.47;;;16.37;54.43
64189;BME280;50493;50.970;10.082;2023-09-30T03:17:57;100145.56;;;16.33;54.20
64189;BME280;50493;50.970;10.082;2023-09-30T03:20:23;100157.25;;;16.26;54.26
64189;BME280;50493;50.970;10.082;2023-09-30T03:22:52;100166.31;;;16.17;54.69
64189;BME280;50493;50.970;10.082;2023-09-30T03:25:19;100164.03;;;16.06;54.91
64189;BME280;50493;50.970;10.082;2023-09-30T03:27:46;100172.25;;;16.24;54.11
64189;BME280;50493;50.970;10.082;2023-09-30T03:30:13;100172.31;;;16.22;53.88
64189;BME280;50493;50.970;10.082;2023-09-30T03:32:38;100166.16;;;15.95;54.77
64189;BME280;50493;50.970;10.082;2023-09-30T03:35:04;100162.06;;;15.83;54.60
64189;BME280;50493;50.970;10.082;2023-09-30T03:37:31;100154.72;;;15.66;55.80
64189;BME280;50493;50.970;10.082;2023-09-30T03:39:57;100156.25;;;15.73;55.96
64189;BME280;50493;50.970;10.082;2023-09-30T03:42:23;100165.16;;;15.69;56.04
64189;BME280;50493;50.970;10.082;2023-09-30T03:44:49;100167.06;;;15.64;55.85
64189;BME280;50493;50.970;10.082;2023-09-30T03:47:15;100183.91;;;15.58;56.19
64189;BME280;50493;50.970;10.082;2023-09-30T03:49:40;100182.88;;;15.64;55.63
64189;BME280;50493;50.970;10.082;2023-09-30T03:52:06;100167.84;;;15.67;55.39
64189;BME280;50493;50.970;10.082;2023-09-30T03:54:33;100161.78;;;15.64;55.29
64189;BME280;50493;50.970;10.082;2023-09-30T03:57:00;100163.78;;;15.56;55.95
64189;BME280;50493;50.970;10.082;2023-09-30T03:59:25;100167.16;;;15.61;55.64
64189;BME280;50493;50.970;10.082;2023-09-30T04:01:51;100185.78;;;15.55;55.86
64189;BME280;50493;50.970;10.082;2023-09-30T04:04:18;100180.50;;;15.55;55.72
64189;BME280;50493;50.970;10.082;2023-09-30T04:06:44;100177.06;;;15.52;55.80
64189;BME280;50493;50.970;10.082;2023-09-30T04:09:10;100187.66;;;15.51;55.61
64189;BME280;50493;50.970;10.082;2023-09-30T04:11:36;100181.25;;;15.60;55.13
64189;BME280;50493;50.970;10.082;2023-09-30T04:14:04;100186.59;;;15.57;55.33
64189;BME280;50493;50.970;10.082;2023-09-30T04:16:29;100180.59;;;15.51;55.41
64189;BME280;50493;50.970;10.082;2023-09-30T04:18:55;100187.72;;;15.48;55.48
64189;BME280;50493;50.970;10.082;2023-09-30T04:21:21;100192.19;;;15.46;55.42
64189;BME280;50493;50.970;10.082;2023-09-30T04:23:46;100202.09;;;15.38;55.70
64189;BME280;50493;50.970;10.082;2023-09-30T04:26:12;100197.69;;;15.38;55.55
64189;BME280;50493;50.970;10.082;2023-09-30T04:28:37;100190.63;;;15.39;55.51
64189;BME280;50493;50.970;10.082;2023-09-30T04:31:04;100189.56;;;15.46;55.04
64189;BME280;50493;50.970;10.082;2023-09-30T04:33:30;100193.19;;;15.42;55.21
64189;BME280;50493;50.970;10.082;2023-09-30T04:35:55;100186.81;;;15.49;54.90
64189;BME280;50493;50.970;10.082;2023-09-30T04:38:20;100176.06;;;15.57;54.46
64189;BME280;50493;50.970;10.082;2023-09-30T04:40:46;100187.09;;;15.40;54.96
64189;BME280;50493;50.970;10.082;2023-09-30T04:43:13;100193.75;;;15.22;55.51
64189;BME280;50493;50.970;10.082;2023-09-30T04:45:39;100185.28;;;15.10;55.69
64189;BME280;50493;50.970;10.082;2023-09-30T04:48:06;100183.72;;;15.03;56.12
64189;BME280;50493;50.970;10.082;2023-09-30T04:50:31;100195.34;;;14.96;56.26
64189;BME280;50493;50.970;10.082;2023-09-30T04:52:57;100205.88;;;14.96;56.09
64189;BME280;50493;50.970;10.082;2023-09-30T04:55:25;100197.19;;;14.91;56.17
64189;BME280;50493;50.970;10.082;2023-09-30T04:57:51;100199.03;;;14.87;56.11
64189;BME280;50493;50.970;10.082;2023-09-30T05:00:18;100205.19;;;14.88;55.98
64189;BME280;50493;50.970;10.082;2023-09-30T05:02:44;100203.31;;;14.93;55.86
64189;BME280;50493;50.970;10.082;2023-09-30T05:05:14;100207.66;;;14.94;55.60
64189;BME280;50493;50.970;10.082;2023-09-30T05:07:40;100204.13;;;14.95;55.60
64189;BME280;50493;50.970;10.082;2023-09-30T05:10:07;100210.25;;;14.95;55.28
64189;BME280;50493;50.970;10.082;2023-09-30T05:12:36;100218.28;;;14.89;55.54
64189;BME280;50493;50.970;10.082;2023-09-30T05:15:03;100216.84;;;14.77;55.96
64189;BME280;50493;50.970;10.082;2023-09-30T05:17:28;100226.38;;;14.81;55.64
64189;BME280;50493;50.970;10.082;2023-09-30T05:19:54;100223.84;;;14.78;55.66
64189;BME280;50493;50.970;10.082;2023-09-30T05:22:20;100227.72;;;14.98;54.51
64189;BME280;50493;50.970;10.082;2023-09-30T05:24:49;100221.75;;;14.93;54.93
64189;BME280;50493;50.970;10.082;2023-09-30T05:27:14;100217.63;;;14.81;55.25
64189;BME280;50493;50.970;10.082;2023-09-30T05:29:40;100215.19;;;14.73;55.42
64189;BME280;50493;50.970;10.082;2023-09-30T05:32:05;100218.75;;;14.71;55.36
64189;BME280;50493;50.970;10.082;2023-09-30T05:34:32;100220.59;;;14.67;55.46
64189;BME280;50493;50.970;10.082;2023-09-30T05:36:58;100223.41;;;14.61;55.64
64189;BME280;50493;50.970;10.082;2023-09-30T05:39:24;100232.44;;;14.49;56.01
64189;BME280;50493;50.970;10.082;2023-09-30T05:41:51;100231.59;;;14.48;55.85
64189;BME280;50493;50.970;10.082;2023-09-30T05:44:16;100224.28;;;14.60;55.32
64189;BME280;50493;50.970;10.082;2023-09-30T05:46:42;100219.16;;;14.55;55.52
64189;BME280;50493;50.970;10.082;2023-09-30T05:49:08;100225.34;;;14.53;55.47
64189;BME280;50493;50.970;10.082;2023-09-30T05:51:38;100225.28;;;14.56;55.26
64189;BME280;50493;50.970;10.082;2023-09-30T05:54:04;100231.59;;;14.48;55.33
64189;BME280;50493;50.970;10.082;2023-09-30T05:56:31;100224.69;;;14.44;55.45
64189;BME280;50493;50.970;10.082;2023-09-30T05:58:58;100239.66;;;14.41;55.61
64189;BME280;50493;50.970;10.082;2023-09-30T06:01:23;100240.38;;;14.47;55.21
64189;BME280;50493;50.970;10.082;2023-09-30T06:03:49;100247.38;;;14.48;55.17
64189;BME280;50493;50.970;10.082;2023-09-30T06:06:14;100253.41;;;14.54;54.92
64189;BME280;50493;50.970;10.082;2023-09-30T06:08:41;100255.56;;;14.72;54.35
64189;BME280;50493;50.970;10.082;2023-09-30T06:11:07;100250.97;;;14.80;53.96
64189;BME280;50493;50.970;10.082;2023-09-30T06:13:33;100262.56;;;14.73;53.95
64189;BME280;50493;50.970;10.082;2023-09-30T06:15:59;100251.94;;;14.76;53.85
64189;BME280;50493;50.970;10.082;2023-09-30T06:18:25;100262.59;;;15.08;52.98
64189;BME280;50493;50.970;10.082;2023-09-30T06:20:50;100269.53;;;15.75;51.08
64189;BME280;50493;50.970;10.082;2023-09-30T06:23:16;100255.13;;;16.16;49.55
64189;BME280;50493;50.970;10.082;2023-09-30T06:25:42;100262.75;;;16.54;48.17
64189;BME280;50493;50.970;10.082;2023-09-30T06:28:08;100262.44;;;16.92;47.41
64189;BME280;50493;50.970;10.082;2023-09-30T06:30:35;100265.81;;;17.21;46.68
64189;BME280;50493;50.970;10.082;2023-09-30T06:33:01;100272.03;;;17.19;46.40
64189;BME280;50493;50.970;10.082;2023-09-30T06:35:27;100270.00;;;16.47;49.41
64189;BME280;50493;50.970;10.082;2023-09-30T06:37:52;100266.97;;;15.42;52.82
64189;BME280;50493;50.970;10.082;2023-09-30T06:40:18;100262.38;;;15.48;52.34
64189;BME280;50493;50.970;10.082;2023-09-30T06:42:44;100264.41;;;15.06;52.88
64189;BME280;50493;50.970;10.082;2023-09-30T06:45:10;100262.44;;;15.45;51.70
64189;BME280;50493;50.970;10.082;2023-09-30T06:47:38;100265.63;;;14.91;54.01
64189;BME280;50493;50.970;10.082;2023-09-30T06:50:09;100280.75;;;14.46;56.14
64189;BME280;50493;50.970;10.082;2023-09-30T06:52:35;100286.84;;;14.48;56.30
64189;BME280;50493;50.970;10.082;2023-09-30T06:55:01;100289.75;;;14.36;55.27
64189;BME280;50493;50.970;10.082;2023-09-30T06:57:27;100281.69;;;15.16;52.38
64189;BME280;50493;50.970;10.082;2023-09-30T06:59:52;100285.81;;;15.58;50.94
64189;BME280;50493;50.970;10.082;2023-09-30T07:02:17;100291.22;;;16.14;49.74
64189;BME280;50493;50.970;10.082;2023-09-30T07:04:44;100303.47;;;16.45;50.16
64189;BME280;50493;50.970;10.082;2023-09-30T07:07:10;100306.41;;;16.64;48.75
64189;BME280;50493;50.970;10.082;2023-09-30T07:09:35;100309.91;;;16.65;50.73
64189;BME280;50493;50.970;10.082;2023-09-30T07:12:01;100293.19;;;16.38;50.99
64189;BME280;50493;50.970;10.082;2023-09-30T07:14:27;100307.69;;;15.94;52.98
64189;BME280;50493;50.970;10.082;2023-09-30T07:16:52;100314.97;;;15.83;53.61
64189;BME280;50493;50.970;10.082;2023-09-30T07:19:17;100317.22;;;16.57;51.10
64189;BME280;50493;50.970;10.082;2023-09-30T07:21:44;100305.59;;;16.91;51.77
64189;BME280;50493;50.970;10.082;2023-09-30T07:24:11;100315.94;;;15.49;55.22
64189;BME280;50493;50.970;10.082;2023-09-30T07:26:37;100310.84;;;14.33;59.45
64189;BME280;50493;50.970;10.082;2023-09-30T07:29:02;100316.97;;;14.35;59.87
64189;BME280;50493;50.970;10.082;2023-09-30T07:31:33;100317.13;;;15.37;54.45
64189;BME280;50493;50.970;10.082;2023-09-30T07:33:59;100315.97;;;15.14;55.92
64189;BME280;50493;50.970;10.082;2023-09-30T07:36:25;100324.34;;;15.95;56.03
64189;BME280;50493;50.970;10.082;2023-09-30T07:38:51;100314.28;;;16.38;49.92
64189;BME280;50493;50.970;10.082;2023-09-30T07:41:18;100319.09;;;15.29;56.64
64189;BME280;50493;50.970;10.082;2023-09-30T07:43:43;100312.34;;;14.82;60.37
64189;BME280;50493;50.970;10.082;2023-09-30T07:46:09;100310.47;;;14.88;60.04
64189;BME280;50493;50.970;10.082;2023-09-30T07:48:34;100323.63;;;14.50;61.40
64189;BME280;50493;50.970;10.082;2023-09-30T07:51:00;100320.09;;;14.51;60.78
64189;BME280;50493;50.970;10.082;2023-09-30T07:53:26;100318.34;;;15.25;58.04
64189;BME280;50493;50.970;10.082;2023-09-30T07:55:53;100318.63;;;15.13;60.95
64189;BME280;50493;50.970;10.082;2023-09-30T07:58:19;100323.69;;;15.54;58.42
64189;BME280;50493;50.970;10.082;2023-09-30T08:00:45;100325.28;;;15.61;59.24
64189;BME280;50493;50.970;10.082;2023-09-30T08:03:11;100328.31;;;16.10;55.67
64189;BME280;50493;50.970;10.082;2023-09-30T08:05:36;100326.78;;;16.88;52.68
64189;BME280;50493;50.970;10.082;2023-09-30T08:08:02;100333.09;;;15.31;57.75
64189;BME280;50493;50.970;10.082;2023-09-30T08:10:28;100335.56;;;15.70;59.06
64189;BME280;50493;50.970;10.082;2023-09-30T08:12:56;100330.84;;;16.13;53.34
64189;BME280;50493;50.970;10.082;2023-09-30T08:15:23;100321.00;;;17.30;52.21
64189;BME280;50493;50.970;10.082;2023-09-30T08:17:48;100323.78;;;16.72;53.90
64189;BME280;50493;50.970;10.082;2023-09-30T08:20:13;100319.41;;;16.71;55.63
64189;BME280;50493;50.970;10.082;2023-09-30T08:22:39;100314.44;;;17.91;52.45
64189;BME280;50493;50.970;10.082;2023-09-30T08:25:05;100318.97;;;17.87;51.55
64189;BME280;50493;50.970;10.082;2023-09-30T08:27:31;100315.47;;;16.56;54.83
64189;BME280;50493;50.970;10.082;2023-09-30T08:29:58;100307.88;;;17.77;51.62
64189;BME280;50493;50.970;10.082;2023-09-30T08:32:23;100313.47;;;16.92;52.47
64189;BME280;50493;50.970;10.082;2023-09-30T08:34:49;100314.94;;;17.51;50.97
64189;BME280;50493;50.970;10.082;2023-09-30T08:37:15;100318.38;;;15.88;58.35
64189;BME280;50493;50.970;10.082;2023-09-30T08:39:40;100318.06;;;17.38;54.38
64189;BME280;50493;50.970;10.082;2023-09-30T08:42:09;100326.00;;;17.63;53.06
64189;BME280;50493;50.970;10.082;2023-09-30T08:44:36;100312.94;;;18.75;47.45
64189;BME280;50493;50.970;10.082;2023-09-30T08:47:04;100310.84;;;18.83;44.30
64189;BME280;50493;50.970;10.082;2023-09-30T08:49:34;100319.78;;;18.35;48.50
64189;BME280;50493;50.970;10.082;2023-09-30T08:52:02;100324.63;;;18.47;45.78
64189;BME280;50493;50.970;10.082;2023-09-30T08:54:30;100319.69;;;18.38;48.17
64189;BME280;50493;50.970;10.082;2023-09-30T08:56:56;100326.81;;;18.36;45.74
64189;BME280;50493;50.970;10.082;2023-09-30T08:59:22;100321.63;;;17.87;47.38
64189;BME280;50493;50.970;10.082;2023-09-30T09:01:49;100339.03;;;16.04;54.26
64189;BME280;50493;50.970;10.082;2023-09-30T09:04:16;100331.69;;;17.00;54.18
64189;BME280;50493;50.970;10.082;2023-09-30T09:06:42;100344.84;;;16.45;55.18
64189;BME280;50493;50.970;10.082;2023-09-30T09:09:14;100331.38;;;17.85;47.73
64189;BME280;50493;50.970;10.082;2023-09-30T09:11:41;100329.16;;;19.10;46.82
64189;BME280;50493;50.970;10.082;2023-09-30T09:14:07;100329.81;;;19.15;49.90
64189;BME280;50493;50.970;10.082;2023-09-30T09:16:33;100335.53;;;17.42;50.84
64189;BME280;50493;50.970;10.082;2023-09-30T09:18:59;100335.59;;;17.40;50.00
64189;BME280;50493;50.970;10.082;2023-09-30T09:21:53;100341.75;;;16.30;53.88
64189;BME280;50493;50.970;10.082;2023-09-30T09:24:27;100338.06;;;17.19;51.44
64189;BME280;50493;50.970;10.082;2023-09-30T09:26:52;100328.13;;;17.78;48.68
64189;BME280;50493;50.970;10.082;2023-09-30T09:29:28;100336.34;;;17.18;51.14
64189;BME280;50493;50.970;10.082;2023-09-30T09:32:06;100331.44;;;16.79;52.98
64189;BME280;50493;50.970;10.082;2023-09-30T09:34:32;100328.56;;;18.37;48.13
64189;BME280;50493;50.970;10.082;2023-09-30T09:36:59;100333.97;;;19.64;47.72
64189;BME280;50493;50.970;10.082;2023-09-30T09:39:29;100329.59;;;19.63;44.42
64189;BME280;50493;50.970;10.082;2023-09-30T09:41:58;100330.03;;;18.44;47.60
64189;BME280;50493;50.970;10.082;2023-09-30T09:44:24;100327.72;;;20.24;44.18
64189;BME280;50493;50.970;10.082;2023-09-30T09:46:53;100334.09;;;20.94;42.77
64189;BME280;50493;50.970;10.082;2023-09-30T09:49:19;100341.66;;;20.29;44.58
64189;BME280;50493;50.970;10.082;2023-09-30T09:51:45;100335.97;;;20.73;41.86
64189;BME280;50493;50.970;10.082;2023-09-30T09:54:14;100330.19;;;17.94;48.93
64189;BME280;50493;50.970;10.082;2023-09-30T09:56:39;100336.38;;;17.69;47.90
64189;BME280;50493;50.970;10.082;2023-09-30T09:59:07;100331.56;;;18.94;47.09
64189;BME280;50493;50.970;10.082;2023-09-30T10:01:33;100339.38;;;19.81;44.84
64189;BME280;50493;50.970;10.082;2023-09-30T10:03:59;100331.44;;;18.55;47.56
64189;BME280;50493;50.970;10.082;2023-09-30T10:06:26;100332.47;;;19.15;46.33
64189;BME280;50493;50.970;10.082;2023-09-30T10:08:52;100320.69;;;19.43;46.22
64189;BME280;50493;50.970;10.082;2023-09-30T10:11:19;100319.00;;;19.42;46.50
64189;BME280;50493;50.970;10.082;2023-09-30T10:13:54;100308.16;;;19.86;45.43
64189;BME280;50493;50.970;10.082;2023-09-30T10:16:46;100312.50;;;20.46;38.94
64189;BME280;50493;50.970;10.082;2023-09-30T10:19:14;100307.28;;;20.62;43.02
64189;BME280;50493;50.970;10.082;2023-09-30T10:21:40;100306.94;;;20.14;45.15
64189;BME280;50493;50.970;10.082;2023-09-30T10:24:28;100305.09;;;20.34;44.85
64189;BME280;50493;50.970;10.082;2023-09-30T10:27:29;100315.16;;;20.46;40.81
64189;BME280;50493;50.970;10.082;2023-09-30T10:29:58;100320.00;;;20.55;44.06
64189;BME280;50493;50.970;10.082;2023-09-30T10:35:45;100323.09;;;20.08;45.20
64189;BME280;50493;50.970;10.082;2023-09-30T10:38:36;100313.81;;;20.37;44.47
64189;BME280;50493;50.970;10.082;2023-09-30T10:41:03;100301.75;;;20.11;45.48
64189;BME280;50493;50.970;10.082;2023-09-30T10:43:30;100297.47;;;20.28;45.03
64189;BME280;50493;50.970;10.082;2023-09-30T10:45:56;100299.47;;;20.96;42.22
64189;BME280;50493;50.970;10.082;2023-09-30T10:48:35;100301.59;;;20.70;40.55
64189;BME280;50493;50.970;10.082;2023-09-30T10:51:00;100294.44;;;20.72;44.00
64189;BME280;50493;50.970;10.082;2023-09-30T10:53:26;100293.50;;;21.26;42.26
64189;BME280;50493;50.970;10.082;2023-09-30T10:55:54;100287.81;;;21.33;39.57
64189;BME280;50493;50.970;10.082;2023-09-30T10:58:20;100293.84;;;21.53;42.72
64189;BME280;50493;50.970;10.082;2023-09-30T11:00:53;100283.47;;;22.78;38.92
64189;BME280;50493;50.970;10.082;2023-09-30T11:03:19;100302.31;;;20.37;37.76
64189;BME280;50493;50.970;10.082;2023-09-30T11:05:47;100290.53;;;19.25;48.31
64189;BME280;50493;50.970;10.082;2023-09-30T11:08:15;100286.34;;;20.19;46.61
64189;BME280;50493;50.970;10.082;2023-09-30T11:10:47;100280.22;;;20.36;45.48
64189;BME280;50493;50.970;10.082;2023-09-30T11:13:12;100284.50;;;20.39;46.01
64189;BME280;50493;50.970;10.082;2023-09-30T11:15:38;100279.34;;;20.36;46.46
64189;BME280;50493;50.970;10.082;2023-09-30T11:18:14;100276.63;;;21.27;43.63
64189;BME280;50493;50.970;10.082;2023-09-30T11:20:41;100275.06;;;21.23;44.57
64189;BME280;50493;50.970;10.082;2023-09-30T11:23:06;100271.41;;;21.59;43.76
64189;BME280;50493;50.970;10.082;2023-09-30T11:25:34;100273.53;;;22.01;42.92
64189;BME280;50493;50.970;10.082;2023-09-30T11:28:12;100276.59;;;20.57;36.76
64189;BME280;50493;50.970;10.082;2023-09-30T11:30:53;100271.25;;;20.93;36.48
64189;BME280;50493;50.970;10.082;2023-09-30T11:33:19;100258.84;;;20.94;39.10
64189;BME280;50493;50.970;10.082;2023-09-30T11:35:56;100257.13;;;20.00;46.92
64189;BME280;50493;50.970;10.082;2023-09-30T11:38:23;100259.09;;;21.40;35.94
64189;BME280;50493;50.970;10.082;2023-09-30T11:40:58;100259.56;;;20.05;37.52
64189;BME280;50493;50.970;10.082;2023-09-30T11:43:24;100253.34;;;21.14;41.36
64189;BME280;50493;50.970;10.082;2023-09-30T11:45:50;100253.97;;;21.19;44.80
64189;BME280;50493;50.970;10.082;2023-09-30T11:48:20;100250.25;;;20.88;46.59
64189;BME280;50493;50.970;10.082;2023-09-30T11:50:47;100253.97;;;20.84;47.58
64189;BME280;50493;50.970;10.082;2023-09-30T11:53:15;100250.84;;;21.11;45.05
64189;BME280;50493;50.970;10.082;2023-09-30T11:55:41;100263.47;;;21.41;45.24
64189;BME280;50493;50.970;10.082;2023-09-30T11:58:06;100250.53;;;22.16;44.77
64189;BME280;50493;50.970;10.082;2023-09-30T12:00:35;100249.69;;;22.16;41.83
64189;BME280;50493;50.970;10.082;2023-09-30T12:03:00;100247.47;;;22.70;39.77
64189;BME280;50493;50.970;10.082;2023-09-30T12:05:27;100250.09;;;20.55;35.46
64189;BME280;50493;50.970;10.082;2023-09-30T12:07:54;100259.06;;;21.91;34.25
64189;BME280;50493;50.970;10.082;2023-09-30T12:10:19;100259.44;;;22.15;42.50
64189;BME280;50493;50.970;10.082;2023-09-30T12:12:45;100267.38;;;22.01;43.07
64189;BME280;50493;50.970;10.082;2023-09-30T12:15:10;100256.88;;;22.62;38.92
64189;BME280;50493;50.970;10.082;2023-09-30T12:17:36;100254.22;;;22.30;44.11
64189;BME280;50493;50.970;10.082;2023-09-30T12:20:05;100258.25;;;21.73;45.12
64189;BME280;50493;50.970;10.082;2023-09-30T12:22:33;100260.66;;;22.26;39.05
64189;BME280;50493;50.970;10.082;2023-09-30T12:24:58;100260.69;;;22.42;43.78
64189;BME280;50493;50.970;10.082;2023-09-30T12:27:23;100257.91;;;22.27;43.92
64189;BME280;50493;50.970;10.082;2023-09-30T12:29:50;100244.50;;;22.29;44.06
64189;BME280;50493;50.970;10.082;2023-09-30T12:32:15;100250.91;;;23.03;44.13
64189;BME280;50493;50.970;10.082;2023-09-30T12:34:40;100254.41;;;23.48;43.65
64189;BME280;50493;50.970;10.082;2023-09-30T12:37:06;100245.25;;;23.81;40.20
64189;BME280;50493;50.970;10.082;2023-09-30T12:39:33;100255.16;;;23.36;40.39
64189;BME280;50493;50.970;10.082;2023-09-30T12:41:59;100252.03;;;22.68;43.44